sensor_id;sensor_type;location;lat;lon;timestamp;P1;durP1;ratioP1;P2;durP2;ratioP2
19127;SDS011;9696;53.686;10.094;2024-02-26T00:00:00;12.53;;;7.47;;
19127;SDS011;9696;53.686;10.094;2024-02-26T00:02:30;12.97;;;7.30;;
19127;SDS011;9696;53.686;10.094;2024-02-26T00:05:05;12.67;;;7.10;;
19127;SDS011;9696;53.686;10.094;2024-02-26T00:07:35;14.33;;;7.07;;
19127;SDS011;9696;53.686;10.094;2024-02-26T00:10:05;10.87;;;6.97;;
19127;SDS011;9696;53.686;10.094;2024-02-26T00:12:33;13.43;;;7.40;;
19127;SDS011;9696;53.686;10.094;2024-02-26T00:15:02;14.57;;;6.87;;
19127;SDS011;9696;53.686;10.094;2024-02-26T00:17:31;12.10;;;7.63;;
19127;SDS011;9696;53.686;10.094;2024-02-26T00:19:59;14.13;;;7.40;;
19127;SDS011;9696;53.686;10.094;2024-02-26T00:22:29;13.93;;;7.13;;
19127;SDS011;9696;53.686;10.094;2024-02-26T00:24:58;10.33;;;6.80;;
19127;SDS011;9696;53.686;10.094;2024-02-26T00:27:26;13.90;;;7.63;;
19127;SDS011;9696;53.686;10.094;2024-02-26T00:29:55;12.57;;;6.37;;
19127;SDS011;9696;53.686;10.094;2024-02-26T00:32:24;12.57;;;6.43;;
19127;SDS011;9696;53.686;10.094;2024-02-26T00:34:52;14.43;;;7.37;;
19127;SDS011;9696;53.686;10.094;2024-02-26T00:37:21;11.43;;;6.23;;
19127;SDS011;9696;53.686;10.094;2024-02-26T00:39:51;10.27;;;6.87;;
19127;SDS011;9696;53.686;10.094;2024-02-26T00:42:20;13.63;;;6.90;;
19127;SDS011;9696;53.686;10.094;2024-02-26T00:44:49;13.07;;;6.90;;
19127;SDS011;9696;53.686;10.094;2024-02-26T00:47:18;13.90;;;7.70;;
19127;SDS011;9696;53.686;10.094;2024-02-26T00:49:46;12.43;;;7.53;;
19127;SDS011;9696;53.686;10.094;2024-02-26T00:52:15;13.63;;;7.70;;
19127;SDS011;9696;53.686;10.094;2024-02-26T00:54:44;12.93;;;7.53;;
19127;SDS011;9696;53.686;10.094;2024-02-26T00:57:14;15.03;;;8.43;;
19127;SDS011;9696;53.686;10.094;2024-02-26T00:59:42;14.70;;;7.23;;
19127;SDS011;9696;53.686;10.094;2024-02-26T01:02:11;13.23;;;7.40;;
19127;SDS011;9696;53.686;10.094;2024-02-26T01:04:40;16.30;;;7.93;;
19127;SDS011;9696;53.686;10.094;2024-02-26T01:07:09;18.13;;;8.30;;
19127;SDS011;9696;53.686;10.094;2024-02-26T01:09:37;12.73;;;6.97;;
19127;SDS011;9696;53.686;10.094;2024-02-26T01:12:06;13.83;;;7.40;;
19127;SDS011;9696;53.686;10.094;2024-02-26T01:14:36;15.77;;;7.83;;
19127;SDS011;9696;53.686;10.094;2024-02-26T01:17:05;15.27;;;7.57;;
19127;SDS011;9696;53.686;10.094;2024-02-26T01:19:33;13.67;;;7.60;;
19127;SDS011;9696;53.686;10.094;2024-02-26T01:22:02;13.43;;;6.43;;
19127;SDS011;9696;53.686;10.094;2024-02-26T01:24:31;14.00;;;6.40;;
19127;SDS011;9696;53.686;10.094;2024-02-26T01:26:59;13.20;;;7.10;;
19127;SDS011;9696;53.686;10.094;2024-02-26T01:29:28;13.47;;;7.47;;
19127;SDS011;9696;53.686;10.094;2024-02-26T01:31:58;12.03;;;6.57;;
19127;SDS011;9696;53.686;10.094;2024-02-26T01:34:27;12.97;;;6.80;;
19127;SDS011;9696;53.686;10.094;2024-02-26T01:36:56;14.80;;;7.73;;
19127;SDS011;9696;53.686;10.094;2024-02-26T01:39:24;13.47;;;7.23;;
19127;SDS011;9696;53.686;10.094;2024-02-26T01:41:54;13.77;;;6.93;;
19127;SDS011;9696;53.686;10.094;2024-02-26T01:44:22;14.37;;;6.50;;
19127;SDS011;9696;53.686;10.094;2024-02-26T01:46:51;11.90;;;5.57;;
19127;SDS011;9696;53.686;10.094;2024-02-26T01:49:21;10.33;;;6.00;;
19127;SDS011;9696;53.686;10.094;2024-02-26T01:51:50;17.70;;;5.80;;
19127;SDS011;9696;53.686;10.094;2024-02-26T01:54:19;11.47;;;5.63;;
19127;SDS011;9696;53.686;10.094;2024-02-26T01:56:47;9.10;;;5.80;;
19127;SDS011;9696;53.686;10.094;2024-02-26T01:59:17;10.70;;;5.37;;
19127;SDS011;9696;53.686;10.094;2024-02-26T02:01:47;9.43;;;5.30;;
19127;SDS011;9696;53.686;10.094;2024-02-26T02:04:16;9.63;;;5.03;;
19127;SDS011;9696;53.686;10.094;2024-02-26T02:06:46;8.07;;;5.37;;
19127;SDS011;9696;53.686;10.094;2024-02-26T02:09:15;6.90;;;4.67;;
19127;SDS011;9696;53.686;10.094;2024-02-26T02:11:44;9.07;;;4.73;;
19127;SDS011;9696;53.686;10.094;2024-02-26T02:14:13;10.47;;;5.33;;
19127;SDS011;9696;53.686;10.094;2024-02-26T02:16:41;8.27;;;4.93;;
19127;SDS011;9696;53.686;10.094;2024-02-26T02:19:10;9.53;;;4.70;;
19127;SDS011;9696;53.686;10.094;2024-02-26T02:21:40;9.70;;;5.07;;
19127;SDS011;9696;53.686;10.094;2024-02-26T02:24:08;7.67;;;4.37;;
19127;SDS011;9696;53.686;10.094;2024-02-26T02:26:37;8.87;;;4.83;;
19127;SDS011;9696;53.686;10.094;2024-02-26T02:29:06;8.33;;;4.80;;
19127;SDS011;9696;53.686;10.094;2024-02-26T02:31:36;8.33;;;4.67;;
19127;SDS011;9696;53.686;10.094;2024-02-26T02:34:04;9.63;;;4.67;;
19127;SDS011;9696;53.686;10.094;2024-02-26T02:36:33;10.87;;;4.77;;
19127;SDS011;9696;53.686;10.094;2024-02-26T02:39:03;9.97;;;5.10;;
19127;SDS011;9696;53.686;10.094;2024-02-26T02:41:32;9.63;;;4.93;;
19127;SDS011;9696;53.686;10.094;2024-02-26T02:44:01;11.13;;;5.23;;
19127;SDS011;9696;53.686;10.094;2024-02-26T02:46:29;12.57;;;6.83;;
19127;SDS011;9696;53.686;10.094;2024-02-26T02:49:00;10.73;;;5.70;;
19127;SDS011;9696;53.686;10.094;2024-02-26T02:51:28;8.00;;;4.97;;
19127;SDS011;9696;53.686;10.094;2024-02-26T02:53:57;12.00;;;6.10;;
19127;SDS011;9696;53.686;10.094;2024-02-26T02:56:27;9.63;;;6.03;;
19127;SDS011;9696;53.686;10.094;2024-02-26T02:58:55;12.17;;;6.43;;
19127;SDS011;9696;53.686;10.094;2024-02-26T03:01:24;16.40;;;5.40;;
19127;SDS011;9696;53.686;10.094;2024-02-26T03:03:53;9.13;;;4.60;;
19127;SDS011;9696;53.686;10.094;2024-02-26T03:06:21;7.40;;;3.77;;
19127;SDS011;9696;53.686;10.094;2024-02-26T03:08:53;9.70;;;4.83;;
19127;SDS011;9696;53.686;10.094;2024-02-26T03:11:22;7.33;;;4.90;;
19127;SDS011;9696;53.686;10.094;2024-02-26T03:13:53;8.60;;;5.27;;
19127;SDS011;9696;53.686;10.094;2024-02-26T03:16:23;8.73;;;5.00;;
19127;SDS011;9696;53.686;10.094;2024-02-26T03:18:52;11.27;;;6.17;;
19127;SDS011;9696;53.686;10.094;2024-02-26T03:21:20;11.37;;;5.87;;
19127;SDS011;9696;53.686;10.094;2024-02-26T03:23:49;11.20;;;6.00;;
19127;SDS011;9696;53.686;10.094;2024-02-26T03:26:18;9.57;;;5.47;;
19127;SDS011;9696;53.686;10.094;2024-02-26T03:28:46;14.13;;;5.47;;
19127;SDS011;9696;53.686;10.094;2024-02-26T03:31:16;27.93;;;7.20;;
19127;SDS011;9696;53.686;10.094;2024-02-26T03:33:45;16.97;;;7.57;;
19127;SDS011;9696;53.686;10.094;2024-02-26T03:36:14;14.30;;;6.60;;
19127;SDS011;9696;53.686;10.094;2024-02-26T03:38:43;15.57;;;6.63;;
19127;SDS011;9696;53.686;10.094;2024-02-26T03:41:11;11.27;;;5.50;;
19127;SDS011;9696;53.686;10.094;2024-02-26T03:43:40;29.07;;;6.37;;
19127;SDS011;9696;53.686;10.094;2024-02-26T03:46:08;11.67;;;5.67;;
19127;SDS011;9696;53.686;10.094;2024-02-26T03:48:41;13.03;;;6.30;;
19127;SDS011;9696;53.686;10.094;2024-02-26T03:51:10;13.70;;;6.43;;
19127;SDS011;9696;53.686;10.094;2024-02-26T03:53:38;12.80;;;6.73;;
19127;SDS011;9696;53.686;10.094;2024-02-26T03:56:07;11.50;;;5.50;;
19127;SDS011;9696;53.686;10.094;2024-02-26T03:58:36;11.67;;;5.70;;
19127;SDS011;9696;53.686;10.094;2024-02-26T04:01:06;9.80;;;5.97;;
19127;SDS011;9696;53.686;10.094;2024-02-26T04:03:35;10.00;;;5.70;;
19127;SDS011;9696;53.686;10.094;2024-02-26T04:06:08;10.67;;;5.70;;
19127;SDS011;9696;53.686;10.094;2024-02-26T04:08:37;16.30;;;6.33;;
19127;SDS011;9696;53.686;10.094;2024-02-26T04:11:06;16.57;;;6.63;;
19127;SDS011;9696;53.686;10.094;2024-02-26T04:13:35;11.07;;;6.07;;
19127;SDS011;9696;53.686;10.094;2024-02-26T04:16:04;19.83;;;5.83;;
19127;SDS011;9696;53.686;10.094;2024-02-26T04:18:33;9.37;;;5.57;;
19127;SDS011;9696;53.686;10.094;2024-02-26T04:21:02;24.67;;;6.80;;
19127;SDS011;9696;53.686;10.094;2024-02-26T04:23:35;13.27;;;6.03;;
19127;SDS011;9696;53.686;10.094;2024-02-26T04:26:04;15.17;;;5.97;;
19127;SDS011;9696;53.686;10.094;2024-02-26T04:28:33;13.17;;;5.50;;
19127;SDS011;9696;53.686;10.094;2024-02-26T04:31:02;20.43;;;6.83;;
19127;SDS011;9696;53.686;10.094;2024-02-26T04:33:33;9.80;;;5.30;;
19127;SDS011;9696;53.686;10.094;2024-02-26T04:36:02;10.33;;;5.23;;
19127;SDS011;9696;53.686;10.094;2024-02-26T04:38:31;10.50;;;4.87;;
19127;SDS011;9696;53.686;10.094;2024-02-26T04:41:01;7.83;;;4.77;;
19127;SDS011;9696;53.686;10.094;2024-02-26T04:43:30;44.10;;;6.03;;
19127;SDS011;9696;53.686;10.094;2024-02-26T04:45:58;12.47;;;5.47;;
19127;SDS011;9696;53.686;10.094;2024-02-26T04:48:27;9.23;;;5.33;;
19127;SDS011;9696;53.686;10.094;2024-02-26T04:50:56;17.50;;;5.73;;
19127;SDS011;9696;53.686;10.094;2024-02-26T04:53:24;11.53;;;5.80;;
19127;SDS011;9696;53.686;10.094;2024-02-26T04:55:53;11.73;;;5.87;;
19127;SDS011;9696;53.686;10.094;2024-02-26T04:58:23;8.70;;;5.30;;
19127;SDS011;9696;53.686;10.094;2024-02-26T05:00:52;8.30;;;4.57;;
19127;SDS011;9696;53.686;10.094;2024-02-26T05:03:21;8.93;;;5.23;;
19127;SDS011;9696;53.686;10.094;2024-02-26T05:05:50;12.73;;;6.10;;
19127;SDS011;9696;53.686;10.094;2024-02-26T05:08:19;7.87;;;5.20;;
19127;SDS011;9696;53.686;10.094;2024-02-26T05:10:49;10.17;;;5.30;;
19127;SDS011;9696;53.686;10.094;2024-02-26T05:13:17;9.13;;;5.57;;
19127;SDS011;9696;53.686;10.094;2024-02-26T05:15:47;8.73;;;5.00;;
19127;SDS011;9696;53.686;10.094;2024-02-26T05:18:19;11.13;;;5.93;;
19127;SDS011;9696;53.686;10.094;2024-02-26T05:20:48;9.27;;;4.43;;
19127;SDS011;9696;53.686;10.094;2024-02-26T05:23:17;9.47;;;5.63;;
19127;SDS011;9696;53.686;10.094;2024-02-26T05:25:49;8.70;;;4.70;;
19127;SDS011;9696;53.686;10.094;2024-02-26T05:28:18;7.37;;;4.90;;
19127;SDS011;9696;53.686;10.094;2024-02-26T05:30:48;11.20;;;5.57;;
19127;SDS011;9696;53.686;10.094;2024-02-26T05:33:17;8.27;;;5.73;;
19127;SDS011;9696;53.686;10.094;2024-02-26T05:35:46;16.27;;;5.87;;
19127;SDS011;9696;53.686;10.094;2024-02-26T05:38:14;10.93;;;5.43;;
19127;SDS011;9696;53.686;10.094;2024-02-26T05:40:43;10.63;;;5.90;;
19127;SDS011;9696;53.686;10.094;2024-02-26T05:43:12;14.43;;;4.83;;
19127;SDS011;9696;53.686;10.094;2024-02-26T05:45:42;11.10;;;6.10;;
19127;SDS011;9696;53.686;10.094;2024-02-26T05:48:12;29.00;;;7.33;;
19127;SDS011;9696;53.686;10.094;2024-02-26T05:50:40;16.27;;;6.00;;
19127;SDS011;9696;53.686;10.094;2024-02-26T05:53:09;13.43;;;7.07;;
19127;SDS011;9696;53.686;10.094;2024-02-26T05:55:38;12.03;;;6.27;;
19127;SDS011;9696;53.686;10.094;2024-02-26T05:58:06;12.47;;;6.47;;
19127;SDS011;9696;53.686;10.094;2024-02-26T06:00:35;10.70;;;5.93;;
19127;SDS011;9696;53.686;10.094;2024-02-26T06:03:04;23.83;;;6.07;;
19127;SDS011;9696;53.686;10.094;2024-02-26T06:05:35;8.83;;;5.30;;
19127;SDS011;9696;53.686;10.094;2024-02-26T06:08:04;11.23;;;6.23;;
19127;SDS011;9696;53.686;10.094;2024-02-26T06:10:33;66.23;;;7.37;;
19127;SDS011;9696;53.686;10.094;2024-02-26T06:13:02;15.30;;;6.10;;
19127;SDS011;9696;53.686;10.094;2024-02-26T06:15:30;11.27;;;5.67;;
19127;SDS011;9696;53.686;10.094;2024-02-26T06:17:59;10.90;;;6.27;;
19127;SDS011;9696;53.686;10.094;2024-02-26T06:20:28;11.30;;;6.17;;
19127;SDS011;9696;53.686;10.094;2024-02-26T06:22:58;47.37;;;7.13;;
19127;SDS011;9696;53.686;10.094;2024-02-26T06:25:26;9.20;;;5.80;;
19127;SDS011;9696;53.686;10.094;2024-02-26T06:27:55;14.73;;;5.93;;
19127;SDS011;9696;53.686;10.094;2024-02-26T06:30:24;14.63;;;6.20;;
19127;SDS011;9696;53.686;10.094;2024-02-26T06:32:52;12.07;;;6.83;;
19127;SDS011;9696;53.686;10.094;2024-02-26T06:35:21;12.20;;;6.60;;
19127;SDS011;9696;53.686;10.094;2024-02-26T06:37:50;17.30;;;7.33;;
19127;SDS011;9696;53.686;10.094;2024-02-26T06:40:21;12.53;;;7.00;;
19127;SDS011;9696;53.686;10.094;2024-02-26T06:42:49;19.53;;;6.40;;
19127;SDS011;9696;53.686;10.094;2024-02-26T06:45:18;19.53;;;5.07;;
19127;SDS011;9696;53.686;10.094;2024-02-26T06:47:47;28.87;;;6.20;;
19127;SDS011;9696;53.686;10.094;2024-02-26T06:50:16;25.37;;;6.90;;
19127;SDS011;9696;53.686;10.094;2024-02-26T06:52:44;19.43;;;7.30;;
19127;SDS011;9696;53.686;10.094;2024-02-26T06:55:14;13.50;;;6.97;;
19127;SDS011;9696;53.686;10.094;2024-02-26T06:57:43;13.37;;;6.67;;
19127;SDS011;9696;53.686;10.094;2024-02-26T07:00:12;14.40;;;6.63;;
19127;SDS011;9696;53.686;10.094;2024-02-26T07:02:43;18.90;;;7.20;;
19127;SDS011;9696;53.686;10.094;2024-02-26T07:05:14;27.03;;;7.80;;
19127;SDS011;9696;53.686;10.094;2024-02-26T07:07:43;18.73;;;8.00;;
19127;SDS011;9696;53.686;10.094;2024-02-26T07:10:11;26.47;;;7.77;;
19127;SDS011;9696;53.686;10.094;2024-02-26T07:12:40;24.50;;;6.60;;
19127;SDS011;9696;53.686;10.094;2024-02-26T07:15:10;13.27;;;6.40;;
19127;SDS011;9696;53.686;10.094;2024-02-26T07:17:39;35.23;;;6.07;;
19127;SDS011;9696;53.686;10.094;2024-02-26T07:20:13;13.47;;;6.60;;
19127;SDS011;9696;53.686;10.094;2024-02-26T07:22:43;25.80;;;6.40;;
19127;SDS011;9696;53.686;10.094;2024-02-26T07:25:12;15.17;;;6.93;;
19127;SDS011;9696;53.686;10.094;2024-02-26T07:27:42;45.87;;;6.40;;
19127;SDS011;9696;53.686;10.094;2024-02-26T07:30:13;19.27;;;6.63;;
19127;SDS011;9696;53.686;10.094;2024-02-26T07:32:42;12.07;;;6.00;;
19127;SDS011;9696;53.686;10.094;2024-02-26T07:35:17;14.50;;;5.97;;
19127;SDS011;9696;53.686;10.094;2024-02-26T07:37:47;10.17;;;6.27;;
19127;SDS011;9696;53.686;10.094;2024-02-26T07:40:16;20.43;;;9.40;;
19127;SDS011;9696;53.686;10.094;2024-02-26T07:42:45;28.73;;;8.47;;
19127;SDS011;9696;53.686;10.094;2024-02-26T07:45:15;16.67;;;7.07;;
19127;SDS011;9696;53.686;10.094;2024-02-26T07:47:46;13.80;;;6.87;;
19127;SDS011;9696;53.686;10.094;2024-02-26T07:50:15;15.00;;;6.87;;
19127;SDS011;9696;53.686;10.094;2024-02-26T07:52:44;14.97;;;7.83;;
19127;SDS011;9696;53.686;10.094;2024-02-26T07:55:12;17.03;;;7.47;;
19127;SDS011;9696;53.686;10.094;2024-02-26T07:57:42;21.93;;;6.80;;
19127;SDS011;9696;53.686;10.094;2024-02-26T08:00:11;11.87;;;6.60;;
19127;SDS011;9696;53.686;10.094;2024-02-26T08:02:44;15.80;;;8.00;;
19127;SDS011;9696;53.686;10.094;2024-02-26T08:05:13;13.83;;;6.77;;
19127;SDS011;9696;53.686;10.094;2024-02-26T08:07:42;17.73;;;6.27;;
19127;SDS011;9696;53.686;10.094;2024-02-26T08:10:11;10.83;;;6.20;;
19127;SDS011;9696;53.686;10.094;2024-02-26T08:12:39;16.63;;;6.77;;
19127;SDS011;9696;53.686;10.094;2024-02-26T08:15:08;12.47;;;6.53;;
19127;SDS011;9696;53.686;10.094;2024-02-26T08:17:38;11.40;;;6.07;;
19127;SDS011;9696;53.686;10.094;2024-02-26T08:20:08;12.10;;;6.13;;
19127;SDS011;9696;53.686;10.094;2024-02-26T08:22:37;27.20;;;6.57;;
19127;SDS011;9696;53.686;10.094;2024-02-26T08:25:06;17.10;;;5.97;;
19127;SDS011;9696;53.686;10.094;2024-02-26T08:27:36;12.67;;;6.70;;
19127;SDS011;9696;53.686;10.094;2024-02-26T08:30:05;14.27;;;6.87;;
19127;SDS011;9696;53.686;10.094;2024-02-26T08:32:35;14.80;;;5.67;;
19127;SDS011;9696;53.686;10.094;2024-02-26T08:35:03;18.37;;;6.60;;
19127;SDS011;9696;53.686;10.094;2024-02-26T08:37:33;12.07;;;6.87;;
19127;SDS011;9696;53.686;10.094;2024-02-26T08:40:02;14.90;;;7.27;;
19127;SDS011;9696;53.686;10.094;2024-02-26T08:42:34;12.50;;;7.50;;
19127;SDS011;9696;53.686;10.094;2024-02-26T08:45:03;14.60;;;6.80;;
19127;SDS011;9696;53.686;10.094;2024-02-26T08:47:31;26.80;;;7.30;;
19127;SDS011;9696;53.686;10.094;2024-02-26T08:50:00;12.63;;;5.43;;
19127;SDS011;9696;53.686;10.094;2024-02-26T08:52:29;12.23;;;5.70;;
19127;SDS011;9696;53.686;10.094;2024-02-26T08:54:59;36.80;;;7.30;;
19127;SDS011;9696;53.686;10.094;2024-02-26T08:57:27;12.93;;;6.00;;
19127;SDS011;9696;53.686;10.094;2024-02-26T08:59:56;19.83;;;8.40;;
19127;SDS011;9696;53.686;10.094;2024-02-26T09:02:24;13.97;;;6.27;;
19127;SDS011;9696;53.686;10.094;2024-02-26T09:04:53;22.30;;;6.90;;
19127;SDS011;9696;53.686;10.094;2024-02-26T09:07:22;14.53;;;6.80;;
19127;SDS011;9696;53.686;10.094;2024-02-26T09:09:50;25.83;;;6.67;;
19127;SDS011;9696;53.686;10.094;2024-02-26T09:12:20;30.60;;;6.77;;
19127;SDS011;9696;53.686;10.094;2024-02-26T09:14:49;11.27;;;5.63;;
19127;SDS011;9696;53.686;10.094;2024-02-26T09:17:17;27.60;;;6.77;;
19127;SDS011;9696;53.686;10.094;2024-02-26T09:19:46;13.00;;;6.63;;
19127;SDS011;9696;53.686;10.094;2024-02-26T09:22:15;12.37;;;6.40;;
19127;SDS011;9696;53.686;10.094;2024-02-26T09:24:44;14.77;;;7.57;;
19127;SDS011;9696;53.686;10.094;2024-02-26T09:27:13;10.60;;;6.03;;
19127;SDS011;9696;53.686;10.094;2024-02-26T09:29:43;14.10;;;7.30;;
19127;SDS011;9696;53.686;10.094;2024-02-26T09:32:11;11.67;;;6.77;;
19127;SDS011;9696;53.686;10.094;2024-02-26T09:34:40;22.03;;;7.03;;
19127;SDS011;9696;53.686;10.094;2024-02-26T09:37:09;14.40;;;7.37;;
19127;SDS011;9696;53.686;10.094;2024-02-26T09:39:47;15.73;;;6.97;;
19127;SDS011;9696;53.686;10.094;2024-02-26T09:42:17;12.83;;;7.37;;
19127;SDS011;9696;53.686;10.094;2024-02-26T09:44:48;12.23;;;6.47;;
19127;SDS011;9696;53.686;10.094;2024-02-26T09:47:20;16.63;;;7.13;;
19127;SDS011;9696;53.686;10.094;2024-02-26T09:49:49;13.17;;;6.67;;
19127;SDS011;9696;53.686;10.094;2024-02-26T09:52:20;16.13;;;6.67;;
19127;SDS011;9696;53.686;10.094;2024-02-26T09:54:49;13.90;;;7.13;;
19127;SDS011;9696;53.686;10.094;2024-02-26T09:57:17;14.50;;;7.63;;
19127;SDS011;9696;53.686;10.094;2024-02-26T09:59:53;17.13;;;8.37;;
19127;SDS011;9696;53.686;10.094;2024-02-26T10:02:22;15.43;;;7.03;;
19127;SDS011;9696;53.686;10.094;2024-02-26T10:04:51;14.63;;;7.80;;
19127;SDS011;9696;53.686;10.094;2024-02-26T10:07:22;17.03;;;8.87;;
19127;SDS011;9696;53.686;10.094;2024-02-26T10:09:51;19.73;;;9.27;;
19127;SDS011;9696;53.686;10.094;2024-02-26T10:12:20;15.23;;;8.07;;
19127;SDS011;9696;53.686;10.094;2024-02-26T10:14:49;16.50;;;8.20;;
19127;SDS011;9696;53.686;10.094;2024-02-26T10:17:19;15.37;;;7.90;;
19127;SDS011;9696;53.686;10.094;2024-02-26T10:19:48;14.80;;;7.13;;
19127;SDS011;9696;53.686;10.094;2024-02-26T10:22:18;17.97;;;9.23;;
19127;SDS011;9696;53.686;10.094;2024-02-26T10:24:47;14.67;;;7.97;;
19127;SDS011;9696;53.686;10.094;2024-02-26T10:27:16;12.43;;;7.40;;
19127;SDS011;9696;53.686;10.094;2024-02-26T10:29:44;15.80;;;8.60;;
19127;SDS011;9696;53.686;10.094;2024-02-26T10:32:13;15.60;;;7.53;;
19127;SDS011;9696;53.686;10.094;2024-02-26T10:34:44;15.73;;;8.00;;
19127;SDS011;9696;53.686;10.094;2024-02-26T10:37:13;16.53;;;8.97;;
19127;SDS011;9696;53.686;10.094;2024-02-26T10:39:46;14.03;;;7.53;;
19127;SDS011;9696;53.686;10.094;2024-02-26T10:42:14;14.60;;;7.73;;
19127;SDS011;9696;53.686;10.094;2024-02-26T10:44:46;14.80;;;7.27;;
19127;SDS011;9696;53.686;10.094;2024-02-26T10:47:15;13.57;;;7.17;;
19127;SDS011;9696;53.686;10.094;2024-02-26T10:49:48;14.97;;;7.53;;
19127;SDS011;9696;53.686;10.094;2024-02-26T10:52:19;15.00;;;7.50;;
19127;SDS011;9696;53.686;10.094;2024-02-26T10:54:48;15.03;;;7.87;;
19127;SDS011;9696;53.686;10.094;2024-02-26T10:57:18;15.70;;;8.03;;
19127;SDS011;9696;53.686;10.094;2024-02-26T10:59:47;17.17;;;8.37;;
19127;SDS011;9696;53.686;10.094;2024-02-26T11:02:16;14.70;;;7.57;;
19127;SDS011;9696;53.686;10.094;2024-02-26T11:04:45;13.10;;;7.17;;
19127;SDS011;9696;53.686;10.094;2024-02-26T11:07:17;14.37;;;7.80;;
19127;SDS011;9696;53.686;10.094;2024-02-26T11:09:47;12.53;;;7.13;;
19127;SDS011;9696;53.686;10.094;2024-02-26T11:12:19;15.13;;;7.47;;
19127;SDS011;9696;53.686;10.094;2024-02-26T11:14:48;14.03;;;7.47;;
19127;SDS011;9696;53.686;10.094;2024-02-26T11:17:21;12.57;;;7.10;;
19127;SDS011;9696;53.686;10.094;2024-02-26T11:19:52;13.10;;;6.73;;
19127;SDS011;9696;53.686;10.094;2024-02-26T11:22:22;14.33;;;7.17;;
19127;SDS011;9696;53.686;10.094;2024-02-26T11:24:52;12.90;;;7.63;;
19127;SDS011;9696;53.686;10.094;2024-02-26T11:27:24;13.03;;;7.23;;
19127;SDS011;9696;53.686;10.094;2024-02-26T11:29:57;14.13;;;7.97;;
19127;SDS011;9696;53.686;10.094;2024-02-26T11:32:27;15.27;;;7.83;;
19127;SDS011;9696;53.686;10.094;2024-02-26T11:34:57;11.53;;;7.20;;
19127;SDS011;9696;53.686;10.094;2024-02-26T11:37:27;13.37;;;7.67;;
19127;SDS011;9696;53.686;10.094;2024-02-26T11:39:56;11.30;;;6.95;;
19127;SDS011;9696;53.686;10.094;2024-02-26T11:42:27;16.17;;;8.50;;
19127;SDS011;9696;53.686;10.094;2024-02-26T11:44:56;11.80;;;6.90;;
19127;SDS011;9696;53.686;10.094;2024-02-26T11:47:28;11.07;;;6.57;;
19127;SDS011;9696;53.686;10.094;2024-02-26T11:49:56;10.32;;;6.80;;
19127;SDS011;9696;53.686;10.094;2024-02-26T11:52:25;9.25;;;6.10;;
19127;SDS011;9696;53.686;10.094;2024-02-26T11:54:56;10.33;;;6.47;;
19127;SDS011;9696;53.686;10.094;2024-02-26T11:57:26;8.93;;;5.82;;
19127;SDS011;9696;53.686;10.094;2024-02-26T11:59:55;12.07;;;6.97;;
19127;SDS011;9696;53.686;10.094;2024-02-26T12:02:40;10.00;;;6.43;;
19127;SDS011;9696;53.686;10.094;2024-02-26T12:05:09;11.87;;;7.10;;
19127;SDS011;9696;53.686;10.094;2024-02-26T12:07:40;12.77;;;6.90;;
19127;SDS011;9696;53.686;10.094;2024-02-26T12:10:17;12.70;;;7.30;;
19127;SDS011;9696;53.686;10.094;2024-02-26T12:12:55;12.97;;;7.47;;
19127;SDS011;9696;53.686;10.094;2024-02-26T12:15:30;12.97;;;7.37;;
19127;SDS011;9696;53.686;10.094;2024-02-26T12:18:01;13.27;;;7.70;;
19127;SDS011;9696;53.686;10.094;2024-02-26T12:20:30;14.47;;;8.10;;
19127;SDS011;9696;53.686;10.094;2024-02-26T12:22:59;13.23;;;7.57;;
19127;SDS011;9696;53.686;10.094;2024-02-26T12:25:29;12.53;;;7.23;;
19127;SDS011;9696;53.686;10.094;2024-02-26T12:27:58;11.17;;;6.30;;
19127;SDS011;9696;53.686;10.094;2024-02-26T12:30:27;15.33;;;7.33;;
19127;SDS011;9696;53.686;10.094;2024-02-26T12:33:00;12.43;;;6.60;;
19127;SDS011;9696;53.686;10.094;2024-02-26T12:35:29;13.40;;;6.83;;
19127;SDS011;9696;53.686;10.094;2024-02-26T12:37:59;13.50;;;6.97;;
19127;SDS011;9696;53.686;10.094;2024-02-26T12:40:30;12.67;;;6.37;;
19127;SDS011;9696;53.686;10.094;2024-02-26T12:42:59;15.63;;;7.20;;
19127;SDS011;9696;53.686;10.094;2024-02-26T12:45:29;13.83;;;6.83;;
19127;SDS011;9696;53.686;10.094;2024-02-26T12:47:59;14.27;;;6.93;;
19127;SDS011;9696;53.686;10.094;2024-02-26T12:50:28;17.70;;;8.93;;
19127;SDS011;9696;53.686;10.094;2024-02-26T12:52:58;14.87;;;7.17;;
19127;SDS011;9696;53.686;10.094;2024-02-26T12:55:27;14.53;;;7.70;;
19127;SDS011;9696;53.686;10.094;2024-02-26T12:57:57;19.20;;;8.30;;
19127;SDS011;9696;53.686;10.094;2024-02-26T13:00:26;13.37;;;7.47;;
19127;SDS011;9696;53.686;10.094;2024-02-26T13:02:56;15.90;;;8.30;;
19127;SDS011;9696;53.686;10.094;2024-02-26T13:05:25;15.20;;;7.93;;
19127;SDS011;9696;53.686;10.094;2024-02-26T13:07:54;17.00;;;8.37;;
19127;SDS011;9696;53.686;10.094;2024-02-26T13:10:22;13.50;;;7.53;;
19127;SDS011;9696;53.686;10.094;2024-02-26T13:12:51;18.13;;;8.43;;
19127;SDS011;9696;53.686;10.094;2024-02-26T13:15:21;13.73;;;7.40;;
19127;SDS011;9696;53.686;10.094;2024-02-26T13:17:50;14.77;;;7.83;;
19127;SDS011;9696;53.686;10.094;2024-02-26T13:20:26;13.93;;;7.53;;
19127;SDS011;9696;53.686;10.094;2024-02-26T13:22:59;16.63;;;9.10;;
19127;SDS011;9696;53.686;10.094;2024-02-26T13:25:28;13.13;;;7.33;;
19127;SDS011;9696;53.686;10.094;2024-02-26T13:28:07;14.90;;;7.80;;
19127;SDS011;9696;53.686;10.094;2024-02-26T13:30:38;13.57;;;7.33;;
19127;SDS011;9696;53.686;10.094;2024-02-26T13:33:07;15.40;;;7.70;;
19127;SDS011;9696;53.686;10.094;2024-02-26T13:35:37;13.97;;;7.50;;
19127;SDS011;9696;53.686;10.094;2024-02-26T13:38:06;15.13;;;6.50;;
19127;SDS011;9696;53.686;10.094;2024-02-26T13:40:35;11.97;;;6.90;;
19127;SDS011;9696;53.686;10.094;2024-02-26T13:43:04;13.53;;;7.07;;
19127;SDS011;9696;53.686;10.094;2024-02-26T13:45:33;11.60;;;7.17;;
19127;SDS011;9696;53.686;10.094;2024-02-26T13:48:07;10.43;;;6.37;;
19127;SDS011;9696;53.686;10.094;2024-02-26T13:50:37;11.57;;;6.60;;
19127;SDS011;9696;53.686;10.094;2024-02-26T13:53:05;11.77;;;6.90;;
19127;SDS011;9696;53.686;10.094;2024-02-26T13:55:34;11.90;;;6.07;;
19127;SDS011;9696;53.686;10.094;2024-02-26T13:58:03;14.37;;;6.37;;
19127;SDS011;9696;53.686;10.094;2024-02-26T14:00:32;10.67;;;6.83;;
19127;SDS011;9696;53.686;10.094;2024-02-26T14:03:02;13.97;;;7.13;;
19127;SDS011;9696;53.686;10.094;2024-02-26T14:05:32;14.00;;;7.17;;
19127;SDS011;9696;53.686;10.094;2024-02-26T14:08:01;12.50;;;7.10;;
19127;SDS011;9696;53.686;10.094;2024-02-26T14:10:30;11.60;;;6.67;;
19127;SDS011;9696;53.686;10.094;2024-02-26T14:12:59;12.53;;;6.90;;
19127;SDS011;9696;53.686;10.094;2024-02-26T14:15:28;21.67;;;7.10;;
19127;SDS011;9696;53.686;10.094;2024-02-26T14:17:57;11.63;;;6.40;;
19127;SDS011;9696;53.686;10.094;2024-02-26T14:20:29;14.70;;;7.53;;
19127;SDS011;9696;53.686;10.094;2024-02-26T14:22:59;13.23;;;7.53;;
19127;SDS011;9696;53.686;10.094;2024-02-26T14:25:27;14.07;;;7.67;;
19127;SDS011;9696;53.686;10.094;2024-02-26T14:27:57;12.33;;;7.13;;
19127;SDS011;9696;53.686;10.094;2024-02-26T14:30:26;12.10;;;6.80;;
19127;SDS011;9696;53.686;10.094;2024-02-26T14:32:55;13.93;;;7.50;;
19127;SDS011;9696;53.686;10.094;2024-02-26T14:35:23;10.87;;;6.57;;
19127;SDS011;9696;53.686;10.094;2024-02-26T14:37:52;9.60;;;6.20;;
19127;SDS011;9696;53.686;10.094;2024-02-26T14:40:23;11.50;;;6.40;;
19127;SDS011;9696;53.686;10.094;2024-02-26T14:42:52;13.10;;;6.80;;
19127;SDS011;9696;53.686;10.094;2024-02-26T14:45:21;12.90;;;7.30;;
19127;SDS011;9696;53.686;10.094;2024-02-26T14:47:49;11.67;;;6.50;;